sensor_id;sensor_type;location;lat;lon;timestamp;pressure;altitude;pressure_sealevel;temperature;humidity
9281;BME280;4679;47.966;7.958;2023-03-30T05:41:06;96676.09;;;13.29;74.60
9281;BME280;4679;47.966;7.958;2023-03-30T05:43:08;96675.41;;;13.62;74.35
9281;BME280;4679;47.966;7.958;2023-03-30T05:45:10;96668.75;;;13.60;74.35
9281;BME280;4679;47.966;7.958;2023-03-30T05:47:11;96676.81;;;13.55;74.08
9281;BME280;4679;47.966;7.958;2023-03-30T05:49:13;96675.22;;;13.49;74.21
9281;BME280;4679;47.966;7.958;2023-03-30T05:51:15;96668.31;;;13.43;74.70
9281;BME280;4679;47.966;7.958;2023-03-30T05:53:16;96691.25;;;13.38;74.37
9281;BME280;4679;47.966;7.958;2023-03-30T05:55:18;96702.44;;;13.30;74.87
9281;BME280;4679;47.966;7.958;2023-03-30T05:57:21;96704.63;;;13.23;74.83
9281;BME280;4679;47.966;7.958;2023-03-30T05:59:23;96705.94;;;13.21;75.21
9281;BME280;4679;47.966;7.958;2023-03-30T06:01:25;96712.63;;;13.13;75.58
9281;BME280;4679;47.966;7.958;2023-03-30T06:03:26;96704.34;;;13.15;75.27
9281;BME280;4679;47.966;7.958;2023-03-30T06:05:28;96718.75;;;13.14;75.20
9281;BME280;4679;47.966;7.958;2023-03-30T06:07:30;96742.44;;;13.10;75.88
9281;BME280;4679;47.966;7.958;2023-03-30T06:09:32;96727.00;;;13.07;75.84
9281;BME280;4679;47.966;7.958;2023-03-30T06:11:33;96734.97;;;13.07;75.86
9281;BME280;4679;47.966;7.958;2023-03-30T06:13:36;96742.97;;;13.17;75.45
9281;BME280;4679;47.966;7.958;2023-03-30T06:15:38;96741.13;;;13.23;75.45
9281;BME280;4679;47.966;7.958;2023-03-30T06:17:41;96750.41;;;13.30;75.54
9281;BME280;4679;47.966;7.958;2023-03-30T06:19:43;96752.50;;;13.59;75.04
9281;BME280;4679;47.966;7.958;2023-03-30T06:21:45;96759.81;;;13.92;74.42
9281;BME280;4679;47.966;7.958;2023-03-30T06:23:47;96764.56;;;14.05;73.83
9281;BME280;4679;47.966;7.958;2023-03-30T06:25:49;96766.53;;;14.39;72.70
9281;BME280;4679;47.966;7.958;2023-03-30T06:27:52;96773.41;;;14.55;72.41
9281;BME280;4679;47.966;7.958;2023-03-30T06:29:55;96769.44;;;14.87;71.55
9281;BME280;4679;47.966;7.958;2023-03-30T06:31:57;96777.53;;;15.10;71.08
9281;BME280;4679;47.966;7.958;2023-03-30T06:33:59;96781.19;;;15.20;70.64
9281;BME280;4679;47.966;7.958;2023-03-30T06:36:01;96783.75;;;15.30;69.73
9281;BME280;4679;47.966;7.958;2023-03-30T06:38:02;96791.31;;;15.52;68.72
9281;BME280;4679;47.966;7.958;2023-03-30T06:40:05;96791.31;;;15.57;68.61
9281;BME280;4679;47.966;7.958;2023-03-30T06:42:12;96801.47;;;15.55;68.08
9281;BME280;4679;47.966;7.958;2023-03-30T06:44:14;96786.50;;;15.54;68.00
9281;BME280;4679;47.966;7.958;2023-03-30T06:46:17;96781.91;;;15.59;67.87
9281;BME280;4679;47.966;7.958;2023-03-30T06:48:19;96784.28;;;15.61;67.32
9281;BME280;4679;47.966;7.958;2023-03-30T06:50:23;96777.94;;;15.57;67.13
9281;BME280;4679;47.966;7.958;2023-03-30T06:52:24;96772.34;;;15.77;66.88
9281;BME280;4679;47.966;7.958;2023-03-30T06:54:26;96779.06;;;15.98;65.80
9281;BME280;4679;47.966;7.958;2023-03-30T06:56:28;96778.94;;;16.08;64.95
9281;BME280;4679;47.966;7.958;2023-03-30T06:58:29;96786.91;;;16.13;64.35
9281;BME280;4679;47.966;7.958;2023-03-30T07:00:31;96751.44;;;16.22;63.91
9281;BME280;4679;47.966;7.958;2023-03-30T07:02:34;96746.38;;;16.20;64.30
9281;BME280;4679;47.966;7.958;2023-03-30T07:04:36;96753.47;;;16.11;63.58
9281;BME280;4679;47.966;7.958;2023-03-30T07:06:38;96737.41;;;16.11;63.85
9281;BME280;4679;47.966;7.958;2023-03-30T07:08:39;96749.84;;;16.21;62.98
9281;BME280;4679;47.966;7.958;2023-03-30T07:10:41;96746.47;;;16.15;63.30
9281;BME280;4679;47.966;7.958;2023-03-30T07:12:43;96745.22;;;16.07;62.67
9281;BME280;4679;47.966;7.958;2023-03-30T07:14:44;96753.94;;;16.18;63.17
9281;BME280;4679;47.966;7.958;2023-03-30T07:16:46;96763.41;;;16.29;62.07
9281;BME280;4679;47.966;7.958;2023-03-30T07:18:50;96757.91;;;16.39;61.74
9281;BME280;4679;47.966;7.958;2023-03-30T07:20:52;96772.59;;;16.42;61.44
9281;BME280;4679;47.966;7.958;2023-03-30T07:22:53;96756.41;;;16.33;61.45
9281;BME280;4679;47.966;7.958;2023-03-30T07:24:55;96764.72;;;16.32;61.08
9281;BME280;4679;47.966;7.958;2023-03-30T07:26:57;96769.56;;;16.30;60.79
9281;BME280;4679;47.966;7.958;2023-03-30T07:28:58;96776.94;;;16.19;60.93
9281;BME280;4679;47.966;7.958;2023-03-30T07:31:04;96775.22;;;16.04;60.98
9281;BME280;4679;47.966;7.958;2023-03-30T07:33:06;96777.09;;;15.85;61.44
9281;BME280;4679;47.966;7.958;2023-03-30T07:35:09;96784.75;;;15.68;62.24
9281;BME280;4679;47.966;7.958;2023-03-30T07:37:11;96799.84;;;15.54;62.42
9281;BME280;4679;47.966;7.958;2023-03-30T07:39:13;96795.75;;;15.37;62.50
9281;BME280;4679;47.966;7.958;2023-03-30T07:41:15;96811.28;;;15.30;62.80
9281;BME280;4679;47.966;7.958;2023-03-30T07:43:17;96825.81;;;15.19;63.13
9281;BME280;4679;47.966;7.958;2023-03-30T07:45:19;96835.59;;;15.00;63.32
9281;BME280;4679;47.966;7.958;2023-03-30T07:47:21;96835.66;;;14.90;64.07
9281;BME280;4679;47.966;7.958;2023-03-30T07:49:23;96833.59;;;14.82;64.29
9281;BME280;4679;47.966;7.958;2023-03-30T07:51:26;96836.88;;;14.68;64.46
9281;BME280;4679;47.966;7.958;2023-03-30T07:53:28;96844.13;;;14.63;64.66
9281;BME280;4679;47.966;7.958;2023-03-30T07:55:30;96848.16;;;14.55;65.16
9281;BME280;4679;47.966;7.958;2023-03-30T07:57:32;96847.69;;;14.48;64.84
9281;BME280;4679;47.966;7.958;2023-03-30T07:59:34;96825.00;;;14.46;64.97
9281;BME280;4679;47.966;7.958;2023-03-30T08:01:35;96809.72;;;14.56;65.18
9281;BME280;4679;47.966;7.958;2023-03-30T08:03:38;96815.03;;;14.56;65.14
9281;BME280;4679;47.966;7.958;2023-03-30T08:05:40;96847.13;;;14.51;64.95
9281;BME280;4679;47.966;7.958;2023-03-30T08:07:43;96828.16;;;14.53;65.01
9281;BME280;4679;47.966;7.958;2023-03-30T08:09:44;96830.00;;;14.57;65.03
9281;BME280;4679;47.966;7.958;2023-03-30T08:11:46;96822.75;;;14.63;64.95
9281;BME280;4679;47.966;7.958;2023-03-30T08:13:48;96841.19;;;14.64;64.96
9281;BME280;4679;47.966;7.958;2023-03-30T08:15:49;96894.59;;;14.64;64.72
9281;BME280;4679;47.966;7.958;2023-03-30T08:17:52;96907.69;;;14.61;64.88
9281;BME280;4679;47.966;7.958;2023-03-30T08:19:53;96882.13;;;14.45;65.23
9281;BME280;4679;47.966;7.958;2023-03-30T08:21:56;96848.31;;;14.20;65.46
9281;BME280;4679;47.966;7.958;2023-03-30T08:23:59;96860.91;;;13.99;66.24
9281;BME280;4679;47.966;7.958;2023-03-30T08:26:01;96862.81;;;13.88;67.00
9281;BME280;4679;47.966;7.958;2023-03-30T08:28:03;96878.28;;;13.76;66.76
9281;BME280;4679;47.966;7.958;2023-03-30T08:30:06;96869.25;;;13.72;67.35
9281;BME280;4679;47.966;7.958;2023-03-30T08:32:08;96888.72;;;13.62;67.84
9281;BME280;4679;47.966;7.958;2023-03-30T08:34:09;96881.78;;;13.51;68.12
9281;BME280;4679;47.966;7.958;2023-03-30T08:36:11;96913.53;;;13.43;68.40
9281;BME280;4679;47.966;7.958;2023-03-30T08:38:13;96935.34;;;13.34;68.56
9281;BME280;4679;47.966;7.958;2023-03-30T08:40:18;96940.16;;;13.32;69.04
9281;BME280;4679;47.966;7.958;2023-03-30T08:42:38;96951.34;;;13.24;69.20
9281;BME280;4679;47.966;7.958;2023-03-30T08:44:49;96957.16;;;13.11;69.42
9281;BME280;4679;47.966;7.958;2023-03-30T08:46:53;96948.88;;;13.02;69.63
9281;BME280;4679;47.966;7.958;2023-03-30T08:48:57;96960.31;;;13.03;70.38
9281;BME280;4679;47.966;7.958;2023-03-30T08:51:06;96969.38;;;13.02;70.49
9281;BME280;4679;47.966;7.958;2023-03-30T08:53:10;96954.72;;;12.94;70.82
9281;BME280;4679;47.966;7.958;2023-03-30T08:55:23;96946.47;;;12.96;70.76
9281;BME280;4679;47.966;7.958;2023-03-30T08:57:37;96927.81;;;12.96;70.97
9281;BME280;4679;47.966;7.958;2023-03-30T08:59:44;96934.19;;;12.90;71.14
9281;BME280;4679;47.966;7.958;2023-03-30T09:01:53;96941.63;;;12.88;71.66
9281;BME280;4679;47.966;7.958;2023-03-30T09:04:05;96924.31;;;12.80;71.62
9281;BME280;4679;47.966;7.958;2023-03-30T09:06:17;96916.81;;;12.72;71.74
9281;BME280;4679;47.966;7.958;2023-03-30T09:08:25;96921.88;;;12.74;71.98
9281;BME280;4679;47.966;7.958;2023-03-30T09:10:34;96931.50;;;12.80;72.20
9281;BME280;4679;47.966;7.958;2023-03-30T09:12:39;96947.69;;;12.68;72.26
9281;BME280;4679;47.966;7.958;2023-03-30T09:14:45;96945.81;;;12.63;72.59
9281;BME280;4679;47.966;7.958;2023-03-30T09:16:52;96955.16;;;12.66;73.03
9281;BME280;4679;47.966;7.958;2023-03-30T09:18:56;96963.63;;;12.58;73.01
9281;BME280;4679;47.966;7.958;2023-03-30T09:21:02;96979.84;;;12.51;73.13
9281;BME280;4679;47.966;7.958;2023-03-30T09:23:10;96979.56;;;12.48;73.64
9281;BME280;4679;47.966;7.958;2023-03-30T09:25:14;96981.94;;;12.44;73.71
9281;BME280;4679;47.966;7.958;2023-03-30T09:27:22;96983.81;;;12.54;74.10
9281;BME280;4679;47.966;7.958;2023-03-30T09:29:29;96986.22;;;12.55;74.40
9281;BME280;4679;47.966;7.958;2023-03-30T09:31:37;96979.34;;;12.59;74.37
9281;BME280;4679;47.966;7.958;2023-03-30T09:33:43;96998.59;;;12.77;74.13
9281;BME280;4679;47.966;7.958;2023-03-30T09:35:59;96993.28;;;12.87;74.25
9281;BME280;4679;47.966;7.958;2023-03-30T09:38:04;96992.28;;;12.98;74.02
9281;BME280;4679;47.966;7.958;2023-03-30T09:40:19;96993.38;;;13.07;74.10
9281;BME280;4679;47.966;7.958;2023-03-30T09:42:32;96997.66;;;13.13;74.22
9281;BME280;4679;47.966;7.958;2023-03-30T09:44:41;97007.22;;;13.09;74.13
9281;BME280;4679;47.966;7.958;2023-03-30T09:46:45;96987.50;;;13.05;74.07
9281;BME280;4679;47.966;7.958;2023-03-30T09:48:49;96997.59;;;13.03;73.96
9281;BME280;4679;47.966;7.958;2023-03-30T09:50:51;96992.56;;;13.07;74.27
9281;BME280;4679;47.966;7.958;2023-03-30T09:52:55;96999.22;;;13.04;74.14
9281;BME280;4679;47.966;7.958;2023-03-30T09:55:05;96996.56;;;13.09;73.69
9281;BME280;4679;47.966;7.958;2023-03-30T09:57:26;96984.34;;;13.13;73.77
9281;BME280;4679;47.966;7.958;2023-03-30T09:59:30;96985.69;;;13.16;73.58
9281;BME280;4679;47.966;7.958;2023-03-30T10:01:35;96998.47;;;13.14;73.45
9281;BME280;4679;47.966;7.958;2023-03-30T10:03:39;96998.75;;;13.17;73.44
9281;BME280;4679;47.966;7.958;2023-03-30T10:05:41;96987.84;;;13.24;73.33
9281;BME280;4679;47.966;7.958;2023-03-30T10:07:42;97002.50;;;13.26;73.03
9281;BME280;4679;47.966;7.958;2023-03-30T10:09:53;96999.88;;;13.42;72.55
9281;BME280;4679;47.966;7.958;2023-03-30T10:11:56;97003.34;;;13.52;72.37
9281;BME280;4679;47.966;7.958;2023-03-30T10:13:58;97003.09;;;13.59;72.02
9281;BME280;4679;47.966;7.958;2023-03-30T10:16:05;96996.16;;;13.63;72.05
9281;BME280;4679;47.966;7.958;2023-03-30T10:18:20;96993.22;;;13.64;71.78
9281;BME280;4679;47.966;7.958;2023-03-30T10:20:27;96984.44;;;13.69;71.77
9281;BME280;4679;47.966;7.958;2023-03-30T10:22:30;96978.84;;;13.81;71.55
9281;BME280;4679;47.966;7.958;2023-03-30T10:24:32;96982.28;;;13.91;71.29
9281;BME280;4679;47.966;7.958;2023-03-30T10:26:36;96981.75;;;13.94;71.02
9281;BME280;4679;47.966;7.958;2023-03-30T10:28:38;96974.28;;;13.91;70.54
9281;BME280;4679;47.966;7.958;2023-03-30T10:30:40;96979.09;;;13.89;71.04
9281;BME280;4679;47.966;7.958;2023-03-30T10:32:44;96988.69;;;13.85;70.82
9281;BME280;4679;47.966;7.958;2023-03-30T10:34:49;97006.84;;;13.83;71.13
9281;BME280;4679;47.966;7.958;2023-03-30T10:36:52;97007.91;;;13.82;70.81
9281;BME280;4679;47.966;7.958;2023-03-30T10:38:54;97017.22;;;13.80;71.17
9281;BME280;4679;47.966;7.958;2023-03-30T10:41:01;97014.28;;;13.76;70.91
9281;BME280;4679;47.966;7.958;2023-03-30T10:43:05;97012.97;;;13.73;70.87
9281;BME280;4679;47.966;7.958;2023-03-30T10:45:15;97018.03;;;13.75;71.04
9281;BME280;4679;47.966;7.958;2023-03-30T10:47:49;97014.31;;;13.71;70.63
9281;BME280;4679;47.966;7.958;2023-03-30T10:49:59;97025.50;;;13.68;70.74
9281;BME280;4679;47.966;7.958;2023-03-30T10:52:09;97026.56;;;13.67;71.26
9281;BME280;4679;47.966;7.958;2023-03-30T10:54:17;97025.50;;;13.68;70.54
9281;BME280;4679;47.966;7.958;2023-03-30T10:56:28;97034.81;;;13.65;70.71
9281;BME280;4679;47.966;7.958;2023-03-30T10:58:57;97023.09;;;13.66;70.75
9281;BME280;4679;47.966;7.958;2023-03-30T11:01:11;97037.50;;;13.65;70.54
9281;BME280;4679;47.966;7.958;2023-03-30T11:03:21;97042.00;;;13.60;70.13
9281;BME280;4679;47.966;7.958;2023-03-30T11:05:28;97044.41;;;13.56;70.59
9281;BME280;4679;47.966;7.958;2023-03-30T11:07:34;97067.59;;;13.56;70.67
9281;BME280;4679;47.966;7.958;2023-03-30T11:09:40;97063.88;;;13.52;70.92
9281;BME280;4679;47.966;7.958;2023-03-30T11:11:48;97063.03;;;13.41;70.92
9281;BME280;4679;47.966;7.958;2023-03-30T11:13:54;97052.59;;;13.24;71.75
9281;BME280;4679;47.966;7.958;2023-03-30T11:16:04;97052.28;;;13.16;71.68
9281;BME280;4679;47.966;7.958;2023-03-30T11:18:13;97069.84;;;13.12;71.94
9281;BME280;4679;47.966;7.958;2023-03-30T11:20:24;97053.06;;;13.11;71.73
9281;BME280;4679;47.966;7.958;2023-03-30T11:22:34;97061.53;;;12.98;72.10
9281;BME280;4679;47.966;7.958;2023-03-30T11:24:38;97079.59;;;12.91;72.07
9281;BME280;4679;47.966;7.958;2023-03-30T11:26:46;97079.59;;;12.91;72.55
9281;BME280;4679;47.966;7.958;2023-03-30T11:28:56;97072.66;;;12.90;72.16
9281;BME280;4679;47.966;7.958;2023-03-30T11:31:04;97067.06;;;12.86;72.59
9281;BME280;4679;47.966;7.958;2023-03-30T11:33:17;97051.31;;;12.80;73.00
9281;BME280;4679;47.966;7.958;2023-03-30T11:35:28;97066.16;;;12.71;72.89
9281;BME280;4679;47.966;7.958;2023-03-30T11:37:34;97062.16;;;12.68;73.30
9281;BME280;4679;47.966;7.958;2023-03-30T11:39:40;97060.28;;;12.68;72.67
9281;BME280;4679;47.966;7.958;2023-03-30T11:41:47;97055.50;;;12.65;73.00
9281;BME280;4679;47.966;7.958;2023-03-30T11:43:51;97072.84;;;12.73;72.54
9281;BME280;4679;47.966;7.958;2023-03-30T11:46:00;97082.22;;;12.81;73.18
9281;BME280;4679;47.966;7.958;2023-03-30T11:48:14;97079.31;;;12.87;73.14
9281;BME280;4679;47.966;7.958;2023-03-30T11:50:44;97066.31;;;12.96;72.84
9281;BME280;4679;47.966;7.958;2023-03-30T11:52:55;97071.91;;;12.99;72.49
9281;BME280;4679;47.966;7.958;2023-03-30T11:55:17;97070.84;;;13.00;72.69
9281;BME280;4679;47.966;7.958;2023-03-30T11:57:29;97059.69;;;13.03;72.46
9281;BME280;4679;47.966;7.958;2023-03-30T11:59:41;97058.63;;;13.04;72.88
9281;BME280;4679;47.966;7.958;2023-03-30T12:02:04;97054.41;;;13.14;72.40
9281;BME280;4679;47.966;7.958;2023-03-30T12:04:09;97060.06;;;13.27;72.23
9281;BME280;4679;47.966;7.958;2023-03-30T12:06:22;97041.44;;;13.48;71.66
9281;BME280;4679;47.966;7.958;2023-03-30T12:08:40;97040.16;;;13.70;71.29
9281;BME280;4679;47.966;7.958;2023-03-30T12:10:46;97036.72;;;13.85;70.43
9281;BME280;4679;47.966;7.958;2023-03-30T12:12:51;97032.72;;;13.98;70.64
9281;BME280;4679;47.966;7.958;2023-03-30T12:15:01;97030.31;;;14.12;69.85
9281;BME280;4679;47.966;7.958;2023-03-30T12:17:11;97018.81;;;14.31;69.89
9281;BME280;4679;47.966;7.958;2023-03-30T12:19:18;97015.88;;;14.48;69.66
9281;BME280;4679;47.966;7.958;2023-03-30T12:21:30;97004.03;;;14.74;68.51
9281;BME280;4679;47.966;7.958;2023-03-30T12:23:35;97000.56;;;14.79;68.42
9281;BME280;4679;47.966;7.958;2023-03-30T12:25:49;97001.09;;;14.76;69.02
9281;BME280;4679;47.966;7.958;2023-03-30T12:28:02;97011.25;;;14.69;68.75
9281;BME280;4679;47.966;7.958;2023-03-30T12:30:12;97016.59;;;14.69;68.96
9281;BME280;4679;47.966;7.958;2023-03-30T12:32:24;97017.72;;;14.63;68.36
9281;BME280;4679;47.966;7.958;2023-03-30T12:34:28;97023.84;;;14.58;69.24
9281;BME280;4679;47.966;7.958;2023-03-30T12:36:36;97025.50;;;14.49;68.70
9281;BME280;4679;47.966;7.958;2023-03-30T12:38:42;97013.47;;;14.41;69.14
9281;BME280;4679;47.966;7.958;2023-03-30T12:40:46;97029.22;;;14.33;69.06
9281;BME280;4679;47.966;7.958;2023-03-30T12:43:00;96992.66;;;14.23;69.25
9281;BME280;4679;47.966;7.958;2023-03-30T12:45:24;96998.28;;;14.06;69.41
9281;BME280;4679;47.966;7.958;2023-03-30T12:47:39;97014.03;;;13.98;69.68
9281;BME280;4679;47.966;7.958;2023-03-30T12:50:00;97006.28;;;13.91;69.81
9281;BME280;4679;47.966;7.958;2023-03-30T12:52:11;96986.56;;;13.87;69.50
9281;BME280;4679;47.966;7.958;2023-03-30T12:54:24;96999.63;;;13.84;69.68
9281;BME280;4679;47.966;7.958;2023-03-30T12:56:36;96996.41;;;13.92;69.68
9281;BME280;4679;47.966;7.958;2023-03-30T12:59:10;96992.91;;;14.32;68.56
9281;BME280;4679;47.966;7.958;2023-03-30T13:01:30;96974.19;;;14.52;68.21
9281;BME280;4679;47.966;7.958;2023-03-30T13:03:40;96976.06;;;14.52;68.14
9281;BME280;4679;47.966;7.958;2023-03-30T13:05:49;96981.69;;;14.50;68.16
9281;BME280;4679;47.966;7.958;2023-03-30T13:07:54;96980.09;;;14.49;68.04
9281;BME280;4679;47.966;7.958;2023-03-30T13:09:59;96968.56;;;14.59;67.34
9281;BME280;4679;47.966;7.958;2023-03-30T13:12:28;96981.41;;;15.16;66.42
9281;BME280;4679;47.966;7.958;2023-03-30T13:14:43;96960.81;;;15.17;66.43
9281;BME280;4679;47.966;7.958;2023-03-30T13:17:11;96956.47;;;15.70;64.51
9281;BME280;4679;47.966;7.958;2023-03-30T13:19:21;96937.91;;;16.12;63.53
9281;BME280;4679;47.966;7.958;2023-03-30T13:21:25;96959.81;;;16.14;63.37
9281;BME280;4679;47.966;7.958;2023-03-30T13:23:37;96954.63;;;15.99;63.24
9281;BME280;4679;47.966;7.958;2023-03-30T13:25:43;96959.94;;;16.28;62.98
9281;BME280;4679;47.966;7.958;2023-03-30T13:27:48;96968.63;;;16.44;62.65
9281;BME280;4679;47.966;7.958;2023-03-30T13:29:53;96964.03;;;16.21;62.64
9281;BME280;4679;47.966;7.958;2023-03-30T13:32:06;96972.41;;;16.14;62.71
9281;BME280;4679;47.966;7.958;2023-03-30T13:34:20;96965.44;;;16.42;62.01
9281;BME280;4679;47.966;7.958;2023-03-30T13:36:29;96971.97;;;16.54;61.40
9281;BME280;4679;47.966;7.958;2023-03-30T13:38:48;96956.13;;;16.63;61.40
9281;BME280;4679;47.966;7.958;2023-03-30T13:40:56;96973.88;;;16.30;61.59
9281;BME280;4679;47.966;7.958;2023-03-30T13:43:05;96968.19;;;16.08;62.20
9281;BME280;4679;47.966;7.958;2023-03-30T13:45:20;96966.16;;;15.95;62.61
9281;BME280;4679;47.966;7.958;2023-03-30T13:47:36;96948.88;;;15.82;62.17
9281;BME280;4679;47.966;7.958;2023-03-30T13:49:47;96949.47;;;15.74;62.32
9281;BME280;4679;47.966;7.958;2023-03-30T13:51:53;96915.31;;;15.66;62.76
9281;BME280;4679;47.966;7.958;2023-03-30T13:54:02;96931.88;;;15.68;62.37
9281;BME280;4679;47.966;7.958;2023-03-30T13:56:06;96929.44;;;15.71;61.61
9281;BME280;4679;47.966;7.958;2023-03-30T13:58:13;96924.75;;;15.87;61.20
9281;BME280;4679;47.966;7.958;2023-03-30T14:00:25;96920.56;;;15.76;61.53
9281;BME280;4679;47.966;7.958;2023-03-30T14:02:32;96914.28;;;15.62;61.17
9281;BME280;4679;47.966;7.958;2023-03-30T14:04:39;96892.38;;;15.55;61.24
9281;BME280;4679;47.966;7.958;2023-03-30T14:06:42;96894.00;;;15.51;60.74
9281;BME280;4679;47.966;7.958;2023-03-30T14:08:46;96885.19;;;15.50;61.32
9281;BME280;4679;47.966;7.958;2023-03-30T14:10:50;96869.38;;;15.54;60.95
9281;BME280;4679;47.966;7.958;2023-03-30T14:12:54;96879.28;;;15.58;60.37
9281;BME280;4679;47.966;7.958;2023-03-30T14:14:56;96886.78;;;15.56;60.00
9281;BME280;4679;47.966;7.958;2023-03-30T14:17:00;96897.22;;;15.53;60.40
9281;BME280;4679;47.966;7.958;2023-03-30T14:19:08;96881.44;;;15.56;60.28
9281;BME280;4679;47.966;7.958;2023-03-30T14:21:14;96870.75;;;15.56;59.99
9281;BME280;4679;47.966;7.958;2023-03-30T14:23:20;96867.44;;;15.64;59.29
9281;BME280;4679;47.966;7.958;2023-03-30T14:25:27;96865.97;;;15.77;59.07
9281;BME280;4679;47.966;7.958;2023-03-30T14:27:34;96860.09;;;15.75;59.48
9281;BME280;4679;47.966;7.958;2023-03-30T14:29:43;96850.28;;;15.70;59.11
9281;BME280;4679;47.966;7.958;2023-03-30T14:31:45;96877.88;;;15.66;59.50
9281;BME280;4679;47.966;7.958;2023-03-30T14:33:47;96878.97;;;15.60;59.05
9281;BME280;4679;47.966;7.958;2023-03-30T14:35:50;96883.84;;;15.53;59.01
9281;BME280;4679;47.966;7.958;2023-03-30T14:37:52;96912.81;;;15.40;59.79
9281;BME280;4679;47.966;7.958;2023-03-30T14:39:55;96929.88;;;15.05;59.76
9281;BME280;4679;47.966;7.958;2023-03-30T14:42:07;96913.91;;;14.36;61.07
9281;BME280;4679;47.966;7.958;2023-03-30T14:44:12;96925.78;;;13.74;62.53
9281;BME280;4679;47.966;7.958;2023-03-30T14:46:14;96931.91;;;13.39;63.71
9281;BME280;4679;47.966;7.958;2023-03-30T14:48:21;96943.88;;;13.21;64.13
9281;BME280;4679;47.966;7.958;2023-03-30T14:50:24;96969.69;;;13.11;64.46
9281;BME280;4679;47.966;7.958;2023-03-30T14:52:31;96979.72;;;12.88;65.57
9281;BME280;4679;47.966;7.958;2023-03-30T14:54:35;96991.63;;;12.71;65.78
9281;BME280;4679;47.966;7.958;2023-03-30T14:56:38;97010.78;;;12.62;66.36
9281;BME280;4679;47.966;7.958;2023-03-30T14:58:40;96996.31;;;12.48;66.92
9281;BME280;4679;47.966;7.958;2023-03-30T15:00:44;97001.34;;;12.45;67.59
9281;BME280;4679;47.966;7.958;2023-03-30T15:02:48;96995.78;;;12.46;67.16
9281;BME280;4679;47.966;7.958;2023-03-30T15:04:52;96982.97;;;12.43;67.79
9281;BME280;4679;47.966;7.958;2023-03-30T15:06:54;96975.50;;;12.35;68.51
9281;BME280;4679;47.966;7.958;2023-03-30T15:08:59;96972.84;;;12.40;68.46
9281;BME280;4679;47.966;7.958;2023-03-30T15:11:06;96970.19;;;12.40;68.46
9281;BME280;4679;47.966;7.958;2023-03-30T15:13:11;96971.84;;;12.46;68.89
9281;BME280;4679;47.966;7.958;2023-03-30T15:15:23;96980.88;;;12.45;69.21
9281;BME280;4679;47.966;7.958;2023-03-30T15:17:28;96975.75;;;12.39;69.71
9281;BME280;4679;47.966;7.958;2023-03-30T15:19:31;96971.25;;;12.39;69.25
9281;BME280;4679;47.966;7.958;2023-03-30T15:21:35;96981.13;;;12.44;69.29
9281;BME280;4679;47.966;7.958;2023-03-30T15:23:39;96983.25;;;12.42;70.10
9281;BME280;4679;47.966;7.958;2023-03-30T15:25:42;96981.13;;;12.44;69.99
9281;BME280;4679;47.966;7.958;2023-03-30T15:27:48;96962.38;;;12.76;69.64
9281;BME280;4679;47.966;7.958;2023-03-30T15:29:53;96963.19;;;12.86;70.01
9281;BME280;4679;47.966;7.958;2023-03-30T15:31:59;96960.53;;;12.86;69.78
9281;BME280;4679;47.966;7.958;2023-03-30T15:34:05;96948.28;;;12.80;70.10
9281;BME280;4679;47.966;7.958;2023-03-30T15:36:17;96937.34;;;12.77;70.55
9281;BME280;4679;47.966;7.958;2023-03-30T15:38:28;96934.91;;;12.70;71.06
9281;BME280;4679;47.966;7.958;2023-03-30T15:40:33;96937.31;;;12.72;71.40
9281;BME280;4679;47.966;7.958;2023-03-30T15:42:35;96955.47;;;12.80;70.88
9281;BME280;4679;47.966;7.958;2023-03-30T15:44:37;96951.75;;;12.81;71.19
9281;BME280;4679;47.966;7.958;2023-03-30T15:46:40;96944.53;;;12.76;71.59
9281;BME280;4679;47.966;7.958;2023-03-30T15:48:44;96943.97;;;12.69;72.07
9281;BME280;4679;47.966;7.958;2023-03-30T15:50:52;96942.03;;;12.49;72.58
9281;BME280;4679;47.966;7.958;2023-03-30T15:52:58;96938.50;;;12.33;72.88
9281;BME280;4679;47.966;7.958;2023-03-30T15:55:05;96931.25;;;12.24;73.56
9281;BME280;4679;47.966;7.958;2023-03-30T15:57:15;96922.44;;;12.13;73.54
9281;BME280;4679;47.966;7.958;2023-03-30T15:59:19;96931.19;;;12.09;74.55
9281;BME280;4679;47.966;7.958;2023-03-30T16:01:22;96931.47;;;12.12;74.49
9281;BME280;4679;47.966;7.958;2023-03-30T16:03:35;96927.28;;;12.26;74.33
9281;BME280;4679;47.966;7.958;2023-03-30T16:05:38;96922.28;;;12.35;74.36
9281;BME280;4679;47.966;7.958;2023-03-30T16:07:41;96924.69;;;12.37;74.13
9281;BME280;4679;47.966;7.958;2023-03-30T16:09:43;96931.41;;;12.54;73.62
9281;BME280;4679;47.966;7.958;2023-03-30T16:11:45;96936.78;;;12.64;74.19
9281;BME280;4679;47.966;7.958;2023-03-30T16:13:47;96927.47;;;12.72;73.76
9281;BME280;4679;47.966;7.958;2023-03-30T16:15:55;96911.78;;;12.76;74.04
9281;BME280;4679;47.966;7.958;2023-03-30T16:17:57;96915.25;;;12.76;74.50
9281;BME280;4679;47.966;7.958;2023-03-30T16:19:59;96920.28;;;12.73;74.11
9281;BME280;4679;47.966;7.958;2023-03-30T16:22:01;96927.47;;;12.72;74.65
9281;BME280;4679;47.966;7.958;2023-03-30T16:24:04;96930.97;;;12.78;74.52
9281;BME280;4679;47.966;7.958;2023-03-30T16:26:06;96932.28;;;12.75;74.94
9281;BME280;4679;47.966;7.958;2023-03-30T16:28:10;96929.34;;;12.72;75.20
9281;BME280;4679;47.966;7.958;2023-03-30T16:30:17;96937.56;;;12.70;74.81
9281;BME280;4679;47.966;7.958;2023-03-30T16:32:21;96934.41;;;12.73;75.20
9281;BME280;4679;47.966;7.958;2023-03-30T16:34:23;96923.47;;;12.69;75.39
9281;BME280;4679;47.966;7.958;2023-03-30T16:36:24;96927.97;;;12.59;75.52
9281;BME280;4679;47.966;7.958;2023-03-30T16:38:28;96920.72;;;12.44;75.75
9281;BME280;4679;47.966;7.958;2023-03-30T16:40:32;96921.53;;;12.45;75.71
9281;BME280;4679;47.966;7.958;2023-03-30T16:42:35;96909.59;;;12.52;75.93
9281;BME280;4679;47.966;7.958;2023-03-30T16:44:36;96909.03;;;12.55;76.13
9281;BME280;4679;47.966;7.958;2023-03-30T16:46:38;96906.94;;;12.52;76.33
9281;BME280;4679;47.966;7.958;2023-03-30T16:48:40;96908.50;;;12.48;75.89
9281;BME280;4679;47.966;7.958;2023-03-30T16:50:43;96902.88;;;12.40;76.26
9281;BME280;4679;47.966;7.958;2023-03-30T16:52:46;96905.78;;;12.38;76.26
9281;BME280;4679;47.966;7.958;2023-03-30T16:54:47;96903.91;;;12.33;76.62
9281;BME280;4679;47.966;7.958;2023-03-30T16:56:50;96901.75;;;12.25;76.84
9281;BME280;4679;47.966;7.958;2023-03-30T16:58:52;96892.47;;;12.33;77.37
9281;BME280;4679;47.966;7.958;2023-03-30T17:00:53;96895.13;;;12.38;77.11
9281;BME280;4679;47.966;7.958;2023-03-30T17:03:02;96898.31;;;12.30;77.43
9281;BME280;4679;47.966;7.958;2023-03-30T17:05:04;96896.69;;;12.24;77.09
9281;BME280;4679;47.966;7.958;2023-03-30T17:07:07;96899.88;;;12.21;77.39